sensor_id;sensor_type;location;lat;lon;timestamp;P1;durP1;ratioP1;P2;durP2;ratioP2
12469;SDS011;36499;46.484;13.832;2022-10-17T00:00:03;29.30;;;18.57;;
12469;SDS011;36499;46.484;13.832;2022-10-17T00:02:32;26.13;;;19.57;;
12469;SDS011;36499;46.484;13.832;2022-10-17T00:04:59;24.93;;;19.80;;
12469;SDS011;36499;46.484;13.832;2022-10-17T00:07:26;29.40;;;20.30;;
12469;SDS011;36499;46.484;13.832;2022-10-17T00:09:56;33.00;;;21.10;;
12469;SDS011;36499;46.484;13.832;2022-10-17T00:12:24;39.00;;;25.00;;
12469;SDS011;36499;46.484;13.832;2022-10-17T00:14:55;31.33;;;20.73;;
12469;SDS011;36499;46.484;13.832;2022-10-17T00:17:24;26.77;;;20.80;;
12469;SDS011;36499;46.484;13.832;2022-10-17T00:19:54;30.83;;;21.87;;
12469;SDS011;36499;46.484;13.832;2022-10-17T00:22:23;29.27;;;20.87;;
12469;SDS011;36499;46.484;13.832;2022-10-17T00:24:50;26.87;;;19.63;;
12469;SDS011;36499;46.484;13.832;2022-10-17T00:27:20;25.97;;;20.00;;
12469;SDS011;36499;46.484;13.832;2022-10-17T00:29:47;28.03;;;19.23;;
12469;SDS011;36499;46.484;13.832;2022-10-17T00:32:16;30.93;;;20.67;;
12469;SDS011;36499;46.484;13.832;2022-10-17T00:34:45;29.63;;;20.43;;
12469;SDS011;36499;46.484;13.832;2022-10-17T00:37:12;37.27;;;22.93;;
12469;SDS011;36499;46.484;13.832;2022-10-17T00:39:40;32.30;;;22.57;;
12469;SDS011;36499;46.484;13.832;2022-10-17T00:42:08;31.90;;;21.67;;
12469;SDS011;36499;46.484;13.832;2022-10-17T00:44:58;35.43;;;22.23;;
12469;SDS011;36499;46.484;13.832;2022-10-17T00:47:32;32.97;;;21.90;;
12469;SDS011;36499;46.484;13.832;2022-10-17T00:50:02;27.13;;;18.87;;
12469;SDS011;36499;46.484;13.832;2022-10-17T00:52:33;26.17;;;17.30;;
12469;SDS011;36499;46.484;13.832;2022-10-17T00:55:03;22.73;;;17.63;;
12469;SDS011;36499;46.484;13.832;2022-10-17T00:57:39;25.27;;;17.93;;
12469;SDS011;36499;46.484;13.832;2022-10-17T01:00:11;21.47;;;16.97;;
12469;SDS011;36499;46.484;13.832;2022-10-17T01:02:42;25.50;;;17.03;;
12469;SDS011;36499;46.484;13.832;2022-10-17T01:05:10;20.07;;;16.40;;
12469;SDS011;36499;46.484;13.832;2022-10-17T01:07:39;26.53;;;17.30;;
12469;SDS011;36499;46.484;13.832;2022-10-17T01:10:09;31.10;;;19.80;;
12469;SDS011;36499;46.484;13.832;2022-10-17T01:12:45;26.97;;;19.73;;
12469;SDS011;36499;46.484;13.832;2022-10-17T01:15:34;24.97;;;18.47;;
12469;SDS011;36499;46.484;13.832;2022-10-17T01:18:18;28.07;;;20.53;;
12469;SDS011;36499;46.484;13.832;2022-10-17T01:21:06;27.70;;;19.80;;
12469;SDS011;36499;46.484;13.832;2022-10-17T01:24:23;25.83;;;19.30;;
12469;SDS011;36499;46.484;13.832;2022-10-17T01:33:42;25.53;;;19.50;;
12469;SDS011;36499;46.484;13.832;2022-10-17T01:36:26;24.80;;;18.43;;
12469;SDS011;36499;46.484;13.832;2022-10-17T01:39:09;27.17;;;18.43;;
12469;SDS011;36499;46.484;13.832;2022-10-17T01:41:50;24.03;;;17.73;;
12469;SDS011;36499;46.484;13.832;2022-10-17T01:44:25;22.53;;;16.63;;
12469;SDS011;36499;46.484;13.832;2022-10-17T01:47:04;22.70;;;17.20;;
12469;SDS011;36499;46.484;13.832;2022-10-17T01:49:36;25.20;;;18.10;;
12469;SDS011;36499;46.484;13.832;2022-10-17T01:52:08;24.90;;;18.37;;
12469;SDS011;36499;46.484;13.832;2022-10-17T01:54:44;24.80;;;17.43;;
12469;SDS011;36499;46.484;13.832;2022-10-17T01:57:19;24.43;;;18.10;;
12469;SDS011;36499;46.484;13.832;2022-10-17T01:59:55;24.77;;;18.70;;
12469;SDS011;36499;46.484;13.832;2022-10-17T02:02:25;24.53;;;17.87;;
12469;SDS011;36499;46.484;13.832;2022-10-17T02:04:55;25.67;;;17.73;;
12469;SDS011;36499;46.484;13.832;2022-10-17T02:07:23;21.73;;;16.83;;
12469;SDS011;36499;46.484;13.832;2022-10-17T02:09:50;22.83;;;17.17;;
12469;SDS011;36499;46.484;13.832;2022-10-17T02:12:24;22.17;;;16.37;;
12469;SDS011;36499;46.484;13.832;2022-10-17T02:15:09;24.37;;;16.97;;
12469;SDS011;36499;46.484;13.832;2022-10-17T02:18:09;22.90;;;17.23;;
12469;SDS011;36499;46.484;13.832;2022-10-17T02:21:05;19.93;;;16.07;;
12469;SDS011;36499;46.484;13.832;2022-10-17T02:23:43;22.90;;;17.40;;
12469;SDS011;36499;46.484;13.832;2022-10-17T02:26:27;21.87;;;16.60;;
12469;SDS011;36499;46.484;13.832;2022-10-17T02:29:05;22.73;;;16.20;;
12469;SDS011;36499;46.484;13.832;2022-10-17T02:31:41;22.10;;;16.83;;
12469;SDS011;36499;46.484;13.832;2022-10-17T02:34:17;23.97;;;17.37;;
12469;SDS011;36499;46.484;13.832;2022-10-17T02:36:52;26.13;;;18.87;;
12469;SDS011;36499;46.484;13.832;2022-10-17T02:39:25;26.83;;;18.83;;
12469;SDS011;36499;46.484;13.832;2022-10-17T02:41:57;26.13;;;18.33;;
12469;SDS011;36499;46.484;13.832;2022-10-17T02:44:31;24.30;;;17.20;;
12469;SDS011;36499;46.484;13.832;2022-10-17T02:47:03;25.50;;;17.90;;
12469;SDS011;36499;46.484;13.832;2022-10-17T02:49:44;25.93;;;17.70;;
12469;SDS011;36499;46.484;13.832;2022-10-17T02:52:16;23.07;;;17.50;;
12469;SDS011;36499;46.484;13.832;2022-10-17T02:54:55;27.73;;;20.40;;
12469;SDS011;36499;46.484;13.832;2022-10-17T02:57:33;26.23;;;19.23;;
12469;SDS011;36499;46.484;13.832;2022-10-17T03:00:10;26.03;;;17.77;;
12469;SDS011;36499;46.484;13.832;2022-10-17T03:02:45;22.10;;;16.50;;
12469;SDS011;36499;46.484;13.832;2022-10-17T03:05:20;24.00;;;17.33;;
12469;SDS011;36499;46.484;13.832;2022-10-17T03:07:50;23.47;;;17.37;;
12469;SDS011;36499;46.484;13.832;2022-10-17T03:10:18;21.73;;;17.00;;
12469;SDS011;36499;46.484;13.832;2022-10-17T03:12:46;20.40;;;16.47;;
12469;SDS011;36499;46.484;13.832;2022-10-17T03:15:14;21.27;;;16.53;;
12469;SDS011;36499;46.484;13.832;2022-10-17T03:17:41;22.23;;;17.27;;
12469;SDS011;36499;46.484;13.832;2022-10-17T03:20:09;27.93;;;19.03;;
12469;SDS011;36499;46.484;13.832;2022-10-17T03:22:38;26.17;;;17.37;;
12469;SDS011;36499;46.484;13.832;2022-10-17T03:25:05;27.13;;;19.40;;
12469;SDS011;36499;46.484;13.832;2022-10-17T03:27:33;31.23;;;18.93;;
12469;SDS011;36499;46.484;13.832;2022-10-17T03:30:01;23.40;;;17.03;;
12469;SDS011;36499;46.484;13.832;2022-10-17T03:32:28;23.67;;;16.23;;
12469;SDS011;36499;46.484;13.832;2022-10-17T03:34:59;20.63;;;15.70;;
12469;SDS011;36499;46.484;13.832;2022-10-17T03:37:26;20.07;;;14.50;;
12469;SDS011;36499;46.484;13.832;2022-10-17T03:39:55;20.40;;;15.10;;
12469;SDS011;36499;46.484;13.832;2022-10-17T03:42:22;28.27;;;15.10;;
12469;SDS011;36499;46.484;13.832;2022-10-17T03:44:49;23.80;;;16.83;;
12469;SDS011;36499;46.484;13.832;2022-10-17T03:47:17;25.07;;;16.67;;
12469;SDS011;36499;46.484;13.832;2022-10-17T03:49:44;23.90;;;16.87;;
12469;SDS011;36499;46.484;13.832;2022-10-17T03:52:12;23.27;;;16.17;;
12469;SDS011;36499;46.484;13.832;2022-10-17T03:54:40;24.00;;;16.67;;
12469;SDS011;36499;46.484;13.832;2022-10-17T03:57:08;24.70;;;18.47;;
12469;SDS011;36499;46.484;13.832;2022-10-17T03:59:36;26.10;;;18.40;;
12469;SDS011;36499;46.484;13.832;2022-10-17T04:02:03;23.90;;;17.03;;
12469;SDS011;36499;46.484;13.832;2022-10-17T04:04:30;21.53;;;16.83;;
12469;SDS011;36499;46.484;13.832;2022-10-17T04:06:57;25.80;;;16.43;;
12469;SDS011;36499;46.484;13.832;2022-10-17T04:09:25;21.90;;;16.50;;
12469;SDS011;36499;46.484;13.832;2022-10-17T04:11:52;23.90;;;17.17;;
12469;SDS011;36499;46.484;13.832;2022-10-17T04:14:20;21.83;;;16.47;;
12469;SDS011;36499;46.484;13.832;2022-10-17T04:16:47;23.20;;;16.83;;
12469;SDS011;36499;46.484;13.832;2022-10-17T04:19:14;24.73;;;16.53;;
12469;SDS011;36499;46.484;13.832;2022-10-17T04:21:41;19.50;;;15.40;;
12469;SDS011;36499;46.484;13.832;2022-10-17T04:24:09;21.40;;;15.27;;
12469;SDS011;36499;46.484;13.832;2022-10-17T04:26:37;20.47;;;15.70;;
12469;SDS011;36499;46.484;13.832;2022-10-17T04:29:04;19.57;;;16.17;;
12469;SDS011;36499;46.484;13.832;2022-10-17T04:31:32;23.00;;;16.57;;
12469;SDS011;36499;46.484;13.832;2022-10-17T04:33:59;26.07;;;16.90;;
12469;SDS011;36499;46.484;13.832;2022-10-17T04:36:27;24.77;;;17.27;;
12469;SDS011;36499;46.484;13.832;2022-10-17T04:39:00;24.17;;;17.17;;
12469;SDS011;36499;46.484;13.832;2022-10-17T04:41:29;23.60;;;16.90;;
12469;SDS011;36499;46.484;13.832;2022-10-17T04:43:56;25.23;;;17.77;;
12469;SDS011;36499;46.484;13.832;2022-10-17T04:46:23;24.57;;;17.33;;
12469;SDS011;36499;46.484;13.832;2022-10-17T04:48:53;25.97;;;17.73;;
12469;SDS011;36499;46.484;13.832;2022-10-17T04:51:20;23.47;;;17.03;;
12469;SDS011;36499;46.484;13.832;2022-10-17T04:53:47;24.87;;;17.30;;
12469;SDS011;36499;46.484;13.832;2022-10-17T04:56:16;23.53;;;16.33;;
12469;SDS011;36499;46.484;13.832;2022-10-17T04:58:47;25.40;;;16.70;;
12469;SDS011;36499;46.484;13.832;2022-10-17T05:01:15;20.67;;;16.10;;
12469;SDS011;36499;46.484;13.832;2022-10-17T05:03:45;19.30;;;15.90;;
12469;SDS011;36499;46.484;13.832;2022-10-17T05:06:16;21.37;;;15.90;;
12469;SDS011;36499;46.484;13.832;2022-10-17T05:08:46;21.53;;;16.00;;
12469;SDS011;36499;46.484;13.832;2022-10-17T05:11:17;21.50;;;15.87;;
12469;SDS011;36499;46.484;13.832;2022-10-17T05:13:49;20.03;;;15.10;;
12469;SDS011;36499;46.484;13.832;2022-10-17T05:16:19;18.83;;;15.00;;
12469;SDS011;36499;46.484;13.832;2022-10-17T05:18:47;21.07;;;15.70;;
12469;SDS011;36499;46.484;13.832;2022-10-17T05:21:17;20.80;;;14.63;;
12469;SDS011;36499;46.484;13.832;2022-10-17T05:23:50;21.37;;;14.73;;
12469;SDS011;36499;46.484;13.832;2022-10-17T05:26:18;22.13;;;14.90;;
12469;SDS011;36499;46.484;13.832;2022-10-17T05:28:46;19.23;;;14.37;;
12469;SDS011;36499;46.484;13.832;2022-10-17T05:31:13;19.80;;;15.13;;
12469;SDS011;36499;46.484;13.832;2022-10-17T05:33:40;17.63;;;14.07;;
12469;SDS011;36499;46.484;13.832;2022-10-17T05:36:08;18.00;;;13.80;;
12469;SDS011;36499;46.484;13.832;2022-10-17T05:38:37;21.57;;;14.60;;
12469;SDS011;36499;46.484;13.832;2022-10-17T05:41:04;29.37;;;17.17;;
12469;SDS011;36499;46.484;13.832;2022-10-17T05:43:32;32.87;;;19.57;;
12469;SDS011;36499;46.484;13.832;2022-10-17T05:46:01;26.73;;;17.87;;
12469;SDS011;36499;46.484;13.832;2022-10-17T05:48:30;20.73;;;16.53;;
12469;SDS011;36499;46.484;13.832;2022-10-17T05:50:58;24.93;;;16.33;;
12469;SDS011;36499;46.484;13.832;2022-10-17T05:53:29;20.90;;;16.13;;
12469;SDS011;36499;46.484;13.832;2022-10-17T05:55:59;22.90;;;16.77;;
12469;SDS011;36499;46.484;13.832;2022-10-17T05:58:29;21.87;;;15.27;;
12469;SDS011;36499;46.484;13.832;2022-10-17T06:00:57;22.10;;;16.83;;
12469;SDS011;36499;46.484;13.832;2022-10-17T06:03:25;27.17;;;17.23;;
12469;SDS011;36499;46.484;13.832;2022-10-17T06:05:53;23.27;;;15.87;;
12469;SDS011;36499;46.484;13.832;2022-10-17T06:08:20;24.67;;;17.57;;
12469;SDS011;36499;46.484;13.832;2022-10-17T06:10:47;25.23;;;16.80;;
12469;SDS011;36499;46.484;13.832;2022-10-17T06:13:16;21.97;;;16.00;;
12469;SDS011;36499;46.484;13.832;2022-10-17T06:15:44;24.90;;;17.17;;
12469;SDS011;36499;46.484;13.832;2022-10-17T06:18:11;26.50;;;16.80;;
12469;SDS011;36499;46.484;13.832;2022-10-17T06:20:39;21.37;;;17.13;;
12469;SDS011;36499;46.484;13.832;2022-10-17T06:23:06;24.10;;;17.23;;
12469;SDS011;36499;46.484;13.832;2022-10-17T06:25:36;24.67;;;17.37;;
12469;SDS011;36499;46.484;13.832;2022-10-17T06:28:03;27.07;;;17.40;;
12469;SDS011;36499;46.484;13.832;2022-10-17T06:30:32;22.87;;;16.67;;
12469;SDS011;36499;46.484;13.832;2022-10-17T06:32:59;19.53;;;15.73;;
12469;SDS011;36499;46.484;13.832;2022-10-17T06:35:26;20.37;;;15.70;;
12469;SDS011;36499;46.484;13.832;2022-10-17T06:37:53;23.80;;;18.03;;
12469;SDS011;36499;46.484;13.832;2022-10-17T06:40:20;21.50;;;16.20;;
12469;SDS011;36499;46.484;13.832;2022-10-17T06:42:48;23.37;;;17.10;;
12469;SDS011;36499;46.484;13.832;2022-10-17T06:45:15;25.37;;;17.37;;
12469;SDS011;36499;46.484;13.832;2022-10-17T06:47:43;23.90;;;18.17;;
12469;SDS011;36499;46.484;13.832;2022-10-17T06:50:10;25.47;;;18.57;;
12469;SDS011;36499;46.484;13.832;2022-10-17T06:52:37;26.93;;;17.90;;
12469;SDS011;36499;46.484;13.832;2022-10-17T06:55:05;21.93;;;17.30;;
12469;SDS011;36499;46.484;13.832;2022-10-17T06:57:32;24.17;;;19.10;;
12469;SDS011;36499;46.484;13.832;2022-10-17T06:59:59;28.03;;;18.30;;
12469;SDS011;36499;46.484;13.832;2022-10-17T07:02:27;25.27;;;17.83;;
12469;SDS011;36499;46.484;13.832;2022-10-17T07:04:55;22.90;;;17.57;;
12469;SDS011;36499;46.484;13.832;2022-10-17T07:07:22;24.30;;;17.23;;
12469;SDS011;36499;46.484;13.832;2022-10-17T07:09:50;26.50;;;18.10;;
12469;SDS011;36499;46.484;13.832;2022-10-17T07:12:17;23.87;;;18.10;;
12469;SDS011;36499;46.484;13.832;2022-10-17T07:14:45;21.87;;;17.30;;
12469;SDS011;36499;46.484;13.832;2022-10-17T07:17:14;24.93;;;16.73;;
12469;SDS011;36499;46.484;13.832;2022-10-17T07:19:42;23.50;;;17.50;;
12469;SDS011;36499;46.484;13.832;2022-10-17T07:22:11;23.60;;;18.10;;
12469;SDS011;36499;46.484;13.832;2022-10-17T07:24:38;25.63;;;18.47;;
12469;SDS011;36499;46.484;13.832;2022-10-17T07:27:06;26.23;;;17.67;;
12469;SDS011;36499;46.484;13.832;2022-10-17T07:29:39;24.60;;;17.33;;
12469;SDS011;36499;46.484;13.832;2022-10-17T07:32:06;23.27;;;16.77;;
12469;SDS011;36499;46.484;13.832;2022-10-17T07:34:33;22.70;;;17.07;;
12469;SDS011;36499;46.484;13.832;2022-10-17T07:37:01;20.77;;;16.13;;
12469;SDS011;36499;46.484;13.832;2022-10-17T07:39:32;23.27;;;18.43;;
12469;SDS011;36499;46.484;13.832;2022-10-17T07:42:00;25.17;;;18.37;;
12469;SDS011;36499;46.484;13.832;2022-10-17T07:44:28;20.87;;;17.63;;
12469;SDS011;36499;46.484;13.832;2022-10-17T07:46:55;23.80;;;18.37;;
12469;SDS011;36499;46.484;13.832;2022-10-17T07:49:22;21.73;;;18.07;;
12469;SDS011;36499;46.484;13.832;2022-10-17T07:51:50;20.03;;;17.03;;
12469;SDS011;36499;46.484;13.832;2022-10-17T07:54:17;19.70;;;17.07;;
12469;SDS011;36499;46.484;13.832;2022-10-17T07:56:45;18.43;;;16.37;;
12469;SDS011;36499;46.484;13.832;2022-10-17T07:59:14;18.43;;;16.40;;
12469;SDS011;36499;46.484;13.832;2022-10-17T08:01:42;23.23;;;17.50;;
12469;SDS011;36499;46.484;13.832;2022-10-17T08:04:09;22.47;;;17.43;;
12469;SDS011;36499;46.484;13.832;2022-10-17T08:06:37;18.10;;;16.20;;
12469;SDS011;36499;46.484;13.832;2022-10-17T08:09:06;20.73;;;17.47;;
12469;SDS011;36499;46.484;13.832;2022-10-17T08:11:37;20.63;;;16.87;;
12469;SDS011;36499;46.484;13.832;2022-10-17T08:14:05;19.13;;;15.83;;
12469;SDS011;36499;46.484;13.832;2022-10-17T08:16:33;19.03;;;17.00;;
12469;SDS011;36499;46.484;13.832;2022-10-17T08:19:00;17.83;;;14.80;;
12469;SDS011;36499;46.484;13.832;2022-10-17T08:21:27;18.63;;;15.00;;
12469;SDS011;36499;46.484;13.832;2022-10-17T08:23:58;18.27;;;16.33;;
12469;SDS011;36499;46.484;13.832;2022-10-17T08:26:27;18.73;;;16.13;;
12469;SDS011;36499;46.484;13.832;2022-10-17T08:28:55;18.13;;;16.17;;
12469;SDS011;36499;46.484;13.832;2022-10-17T08:31:23;17.10;;;15.20;;
12469;SDS011;36499;46.484;13.832;2022-10-17T08:33:51;17.43;;;14.73;;
12469;SDS011;36499;46.484;13.832;2022-10-17T08:36:19;17.27;;;15.33;;
12469;SDS011;36499;46.484;13.832;2022-10-17T08:38:46;16.13;;;14.30;;
12469;SDS011;36499;46.484;13.832;2022-10-17T08:41:18;17.60;;;15.13;;
12469;SDS011;36499;46.484;13.832;2022-10-17T08:44:06;20.83;;;16.17;;
12469;SDS011;36499;46.484;13.832;2022-10-17T08:46:48;17.20;;;15.30;;
12469;SDS011;36499;46.484;13.832;2022-10-17T08:49:24;17.80;;;15.07;;
12469;SDS011;36499;46.484;13.832;2022-10-17T08:52:04;19.40;;;15.70;;
12469;SDS011;36499;46.484;13.832;2022-10-17T08:54:49;16.97;;;15.27;;
12469;SDS011;36499;46.484;13.832;2022-10-17T08:57:17;20.10;;;14.87;;
12469;SDS011;36499;46.484;13.832;2022-10-17T08:59:44;17.63;;;14.97;;
12469;SDS011;36499;46.484;13.832;2022-10-17T09:02:24;16.50;;;14.20;;
12469;SDS011;36499;46.484;13.832;2022-10-17T09:08:19;15.67;;;13.90;;
12469;SDS011;36499;46.484;13.832;2022-10-17T09:11:03;17.27;;;14.00;;
12469;SDS011;36499;46.484;13.832;2022-10-17T09:13:49;15.50;;;13.90;;
12469;SDS011;36499;46.484;13.832;2022-10-17T09:16:45;15.70;;;14.10;;
12469;SDS011;36499;46.484;13.832;2022-10-17T09:19:27;18.60;;;14.33;;
12469;SDS011;36499;46.484;13.832;2022-10-17T09:22:03;17.17;;;14.30;;
12469;SDS011;36499;46.484;13.832;2022-10-17T09:24:38;17.73;;;13.37;;
12469;SDS011;36499;46.484;13.832;2022-10-17T09:27:17;16.50;;;14.77;;
12469;SDS011;36499;46.484;13.832;2022-10-17T09:29:53;15.97;;;14.27;;
12469;SDS011;36499;46.484;13.832;2022-10-17T09:32:40;16.07;;;13.87;;
12469;SDS011;36499;46.484;13.832;2022-10-17T09:35:11;16.77;;;13.40;;
12469;SDS011;36499;46.484;13.832;2022-10-17T09:37:40;17.67;;;13.87;;
12469;SDS011;36499;46.484;13.832;2022-10-17T09:40:11;16.40;;;13.60;;
12469;SDS011;36499;46.484;13.832;2022-10-17T09:42:46;16.10;;;12.60;;
12469;SDS011;36499;46.484;13.832;2022-10-17T09:45:16;14.43;;;12.80;;
12469;SDS011;36499;46.484;13.832;2022-10-17T09:47:59;14.53;;;12.97;;
12469;SDS011;36499;46.484;13.832;2022-10-17T09:50:38;14.67;;;12.47;;
12469;SDS011;36499;46.484;13.832;2022-10-17T09:53:11;16.87;;;13.67;;
12469;SDS011;36499;46.484;13.832;2022-10-17T09:55:47;14.70;;;12.57;;
12469;SDS011;36499;46.484;13.832;2022-10-17T09:58:22;13.50;;;12.10;;
12469;SDS011;36499;46.484;13.832;2022-10-17T10:01:17;14.87;;;12.87;;
12469;SDS011;36499;46.484;13.832;2022-10-17T10:03:48;15.70;;;12.60;;
12469;SDS011;36499;46.484;13.832;2022-10-17T10:06:39;15.57;;;12.70;;
12469;SDS011;36499;46.484;13.832;2022-10-17T10:09:27;16.63;;;12.90;;
12469;SDS011;36499;46.484;13.832;2022-10-17T10:11:59;13.57;;;12.13;;
12469;SDS011;36499;46.484;13.832;2022-10-17T10:14:33;13.27;;;11.87;;
12469;SDS011;36499;46.484;13.832;2022-10-17T10:17:04;18.83;;;11.93;;
12469;SDS011;36499;46.484;13.832;2022-10-17T10:19:52;14.70;;;12.23;;
12469;SDS011;36499;46.484;13.832;2022-10-17T10:22:21;12.50;;;11.20;;
12469;SDS011;36499;46.484;13.832;2022-10-17T10:25:05;13.10;;;11.73;;
12469;SDS011;36499;46.484;13.832;2022-10-17T10:27:38;13.37;;;12.00;;
12469;SDS011;36499;46.484;13.832;2022-10-17T10:30:15;14.17;;;12.70;;
12469;SDS011;36499;46.484;13.832;2022-10-17T10:32:44;13.13;;;11.57;;
12469;SDS011;36499;46.484;13.832;2022-10-17T10:35:17;12.60;;;11.30;;
12469;SDS011;36499;46.484;13.832;2022-10-17T10:37:49;13.80;;;12.47;;
12469;SDS011;36499;46.484;13.832;2022-10-17T10:40:21;15.93;;;11.93;;
12469;SDS011;36499;46.484;13.832;2022-10-17T10:42:55;14.23;;;11.10;;
12469;SDS011;36499;46.484;13.832;2022-10-17T10:45:26;12.20;;;10.87;;
12469;SDS011;36499;46.484;13.832;2022-10-17T10:48:15;12.13;;;10.93;;
12469;SDS011;36499;46.484;13.832;2022-10-17T10:50:48;12.47;;;11.03;;
12469;SDS011;36499;46.484;13.832;2022-10-17T10:53:33;12.00;;;10.13;;
12469;SDS011;36499;46.484;13.832;2022-10-17T10:56:13;12.40;;;11.03;;
12469;SDS011;36499;46.484;13.832;2022-10-17T10:58:50;12.83;;;10.73;;
12469;SDS011;36499;46.484;13.832;2022-10-17T11:01:28;11.37;;;10.13;;
12469;SDS011;36499;46.484;13.832;2022-10-17T11:04:10;12.37;;;10.80;;
12469;SDS011;36499;46.484;13.832;2022-10-17T11:06:52;11.47;;;10.30;;
12469;SDS011;36499;46.484;13.832;2022-10-17T11:09:31;15.73;;;10.50;;
12469;SDS011;36499;46.484;13.832;2022-10-17T11:12:12;11.20;;;9.53;;
12469;SDS011;36499;46.484;13.832;2022-10-17T11:14:52;11.87;;;9.50;;
12469;SDS011;36499;46.484;13.832;2022-10-17T11:17:29;10.90;;;9.60;;
12469;SDS011;36499;46.484;13.832;2022-10-17T11:20:11;10.47;;;9.47;;
12469;SDS011;36499;46.484;13.832;2022-10-17T11:22:48;10.97;;;9.40;;
12469;SDS011;36499;46.484;13.832;2022-10-17T11:25:32;10.20;;;9.23;;
12469;SDS011;36499;46.484;13.832;2022-10-17T11:28:02;11.87;;;9.60;;
12469;SDS011;36499;46.484;13.832;2022-10-17T11:30:40;11.03;;;9.33;;
12469;SDS011;36499;46.484;13.832;2022-10-17T11:33:16;12.77;;;9.37;;
12469;SDS011;36499;46.484;13.832;2022-10-17T11:35:51;11.80;;;9.80;;
12469;SDS011;36499;46.484;13.832;2022-10-17T11:38:29;10.73;;;9.73;;
12469;SDS011;36499;46.484;13.832;2022-10-17T11:41:10;10.63;;;8.97;;
12469;SDS011;36499;46.484;13.832;2022-10-17T11:43:46;11.53;;;9.37;;
12469;SDS011;36499;46.484;13.832;2022-10-17T11:46:26;12.03;;;9.17;;
12469;SDS011;36499;46.484;13.832;2022-10-17T11:48:59;11.83;;;9.60;;
12469;SDS011;36499;46.484;13.832;2022-10-17T11:51:41;10.37;;;9.07;;
12469;SDS011;36499;46.484;13.832;2022-10-17T11:54:22;11.83;;;9.87;;
12469;SDS011;36499;46.484;13.832;2022-10-17T11:57:05;10.37;;;9.37;;
12469;SDS011;36499;46.484;13.832;2022-10-17T11:59:56;10.77;;;9.67;;
12469;SDS011;36499;46.484;13.832;2022-10-17T12:02:40;12.10;;;8.97;;
12469;SDS011;36499;46.484;13.832;2022-10-17T12:05:18;9.87;;;8.33;;
12469;SDS011;36499;46.484;13.832;2022-10-17T12:07:54;9.53;;;8.53;;
12469;SDS011;36499;46.484;13.832;2022-10-17T12:10:44;11.27;;;8.87;;
12469;SDS011;36499;46.484;13.832;2022-10-17T12:19:19;10.67;;;9.13;;
12469;SDS011;36499;46.484;13.832;2022-10-17T12:21:59;12.00;;;9.10;;
12469;SDS011;36499;46.484;13.832;2022-10-17T12:24:53;11.40;;;8.47;;
12469;SDS011;36499;46.484;13.832;2022-10-17T12:27:31;12.70;;;9.27;;
12469;SDS011;36499;46.484;13.832;2022-10-17T12:30:17;11.10;;;9.20;;
12469;SDS011;36499;46.484;13.832;2022-10-17T12:32:53;10.70;;;9.60;;
12469;SDS011;36499;46.484;13.832;2022-10-17T12:35:37;10.80;;;9.60;;
12469;SDS011;36499;46.484;13.832;2022-10-17T12:40:58;11.93;;;9.53;;
12469;SDS011;36499;46.484;13.832;2022-10-17T12:49:22;10.50;;;8.93;;
12469;SDS011;36499;46.484;13.832;2022-10-17T12:54:56;15.03;;;10.07;;
12469;SDS011;36499;46.484;13.832;2022-10-17T12:57:36;11.60;;;10.37;;
12469;SDS011;36499;46.484;13.832;2022-10-17T13:00:22;12.63;;;11.27;;
12469;SDS011;36499;46.484;13.832;2022-10-17T13:03:03;14.50;;;10.20;;
12469;SDS011;36499;46.484;13.832;2022-10-17T13:05:39;11.23;;;10.13;;
12469;SDS011;36499;46.484;13.832;2022-10-17T13:08:14;15.03;;;10.33;;
12469;SDS011;36499;46.484;13.832;2022-10-17T13:10:46;16.90;;;10.07;;
12469;SDS011;36499;46.484;13.832;2022-10-17T13:13:19;14.20;;;9.43;;
12469;SDS011;36499;46.484;13.832;2022-10-17T13:15:57;10.20;;;9.20;;
12469;SDS011;36499;46.484;13.832;2022-10-17T13:18:27;10.40;;;9.30;;
12469;SDS011;36499;46.484;13.832;2022-10-17T13:20:56;10.87;;;9.77;;
12469;SDS011;36499;46.484;13.832;2022-10-17T13:23:29;9.87;;;8.87;;
12469;SDS011;36499;46.484;13.832;2022-10-17T13:26:15;10.07;;;8.63;;
12469;SDS011;36499;46.484;13.832;2022-10-17T13:28:45;10.60;;;9.13;;
12469;SDS011;36499;46.484;13.832;2022-10-17T13:31:27;10.27;;;9.17;;
12469;SDS011;36499;46.484;13.832;2022-10-17T13:33:59;17.50;;;9.27;;
12469;SDS011;36499;46.484;13.832;2022-10-17T13:36:29;10.57;;;9.03;;
12469;SDS011;36499;46.484;13.832;2022-10-17T13:39:00;13.30;;;9.37;;
12469;SDS011;36499;46.484;13.832;2022-10-17T13:41:34;11.93;;;9.33;;
12469;SDS011;36499;46.484;13.832;2022-10-17T13:44:03;10.07;;;9.07;;
12469;SDS011;36499;46.484;13.832;2022-10-17T13:46:38;9.97;;;8.97;;
12469;SDS011;36499;46.484;13.832;2022-10-17T13:49:11;9.47;;;8.50;;
12469;SDS011;36499;46.484;13.832;2022-10-17T13:51:47;9.77;;;8.77;;
12469;SDS011;36499;46.484;13.832;2022-10-17T13:54:27;11.10;;;8.63;;
12469;SDS011;36499;46.484;13.832;2022-10-17T13:57:04;10.30;;;8.43;;
12469;SDS011;36499;46.484;13.832;2022-10-17T13:59:45;9.10;;;6.40;;
12469;SDS011;36499;46.484;13.832;2022-10-17T14:02:18;9.70;;;7.63;;
12469;SDS011;36499;46.484;13.832;2022-10-17T14:04:59;9.23;;;6.90;;
12469;SDS011;36499;46.484;13.832;2022-10-17T14:07:37;8.03;;;6.77;;
12469;SDS011;36499;46.484;13.832;2022-10-17T14:10:17;7.43;;;6.63;;
12469;SDS011;36499;46.484;13.832;2022-10-17T14:12:50;6.93;;;6.33;;
12469;SDS011;36499;46.484;13.832;2022-10-17T14:15:20;11.63;;;6.77;;
12469;SDS011;36499;46.484;13.832;2022-10-17T14:17:53;8.27;;;6.43;;
12469;SDS011;36499;46.484;13.832;2022-10-17T14:20:25;8.57;;;6.40;;
12469;SDS011;36499;46.484;13.832;2022-10-17T14:22:53;8.80;;;6.47;;
12469;SDS011;36499;46.484;13.832;2022-10-17T14:25:28;9.10;;;6.97;;
12469;SDS011;36499;46.484;13.832;2022-10-17T14:28:01;6.53;;;5.67;;
12469;SDS011;36499;46.484;13.832;2022-10-17T14:30:48;7.00;;;6.30;;
12469;SDS011;36499;46.484;13.832;2022-10-17T14:33:23;9.00;;;5.90;;
12469;SDS011;36499;46.484;13.832;2022-10-17T14:35:56;7.33;;;6.53;;
12469;SDS011;36499;46.484;13.832;2022-10-17T14:38:26;7.30;;;6.30;;
12469;SDS011;36499;46.484;13.832;2022-10-17T14:40:55;9.27;;;6.10;;
12469;SDS011;36499;46.484;13.832;2022-10-17T14:43:29;7.73;;;6.33;;
12469;SDS011;36499;46.484;13.832;2022-10-17T14:45:58;6.33;;;5.73;;
12469;SDS011;36499;46.484;13.832;2022-10-17T14:48:27;6.67;;;5.27;;
12469;SDS011;36499;46.484;13.832;2022-10-17T14:51:11;6.93;;;5.77;;
12469;SDS011;36499;46.484;13.832;2022-10-17T14:53:41;8.20;;;6.83;;
12469;SDS011;36499;46.484;13.832;2022-10-17T14:56:24;12.50;;;7.40;;
12469;SDS011;36499;46.484;13.832;2022-10-17T14:58:59;10.27;;;7.10;;
12469;SDS011;36499;46.484;13.832;2022-10-17T15:01:29;7.07;;;6.37;;
12469;SDS011;36499;46.484;13.832;2022-10-17T15:03:58;9.30;;;6.73;;
12469;SDS011;36499;46.484;13.832;2022-10-17T15:06:27;8.13;;;6.20;;
12469;SDS011;36499;46.484;13.832;2022-10-17T15:08:57;8.83;;;7.17;;
12469;SDS011;36499;46.484;13.832;2022-10-17T15:11:25;9.87;;;7.20;;
12469;SDS011;36499;46.484;13.832;2022-10-17T15:13:52;7.60;;;5.70;;